createdAt,value
2022-12-25T00:00:46.215Z,15.30
2022-12-25T00:03:23.714Z,15.90
2022-12-25T00:05:51.753Z,12.30
2022-12-25T00:08:19.133Z,15.52
2022-12-25T00:10:46.362Z,12.65
2022-12-25T00:13:13.646Z,15.30
2022-12-25T00:15:41.691Z,13.90
2022-12-25T00:18:09.121Z,18.70
2022-12-25T00:20:36.328Z,16.45
2022-12-25T00:23:03.560Z,15.73
2022-12-25T00:25:30.856Z,12.57
2022-12-25T00:27:58.132Z,15.73
2022-12-25T00:30:25.359Z,18.92
2022-12-25T00:32:52.577Z,17.30
2022-12-25T00:35:19.771Z,14.82
2022-12-25T00:37:46.995Z,13.70
2022-12-25T00:40:14.231Z,15.23
2022-12-25T00:42:41.475Z,11.65
2022-12-25T00:45:09.147Z,10.70
2022-12-25T00:47:36.358Z,20.73
2022-12-25T00:50:03.976Z,12.95
2022-12-25T00:52:31.274Z,10.32
2022-12-25T00:54:58.455Z,13.50
2022-12-25T00:57:25.780Z,13.77
2022-12-25T00:59:53.049Z,12.35
2022-12-25T01:02:26.372Z,11.52
2022-12-25T01:04:55.955Z,9.20
2022-12-25T01:07:25.122Z,12.20
2022-12-25T01:10:11.431Z,12.80
2022-12-25T01:12:41.329Z,14.63
2022-12-25T01:17:37.051Z,14.85
2022-12-25T01:20:04.751Z,12.15
2022-12-25T01:22:31.992Z,15.13
2022-12-25T01:24:59.268Z,12.30
2022-12-25T01:27:26.538Z,13.48
2022-12-25T01:29:54.267Z,10.73
2022-12-25T01:32:21.506Z,11.23
2022-12-25T01:34:55.491Z,10.85
2022-12-25T01:37:24.920Z,11.55
2022-12-25T01:39:52.202Z,10.55
2022-12-25T01:42:21.494Z,13.13
2022-12-25T01:44:48.675Z,11.73
2022-12-25T01:47:18.376Z,11.88
2022-12-25T01:49:49.951Z,11.35
2022-12-25T01:52:24.034Z,10.10
2022-12-25T01:55:08.955Z,10.40
2022-12-25T01:57:39.308Z,16.02
2022-12-25T02:00:08.839Z,10.80
2022-12-25T02:02:37.255Z,11.00
2022-12-25T02:05:14.431Z,11.15
2022-12-25T02:07:43.032Z,10.98
2022-12-25T02:10:12.074Z,10.40
2022-12-25T02:12:41.306Z,12.30
2022-12-25T02:15:12.866Z,10.88
2022-12-25T02:17:47.548Z,10.27
2022-12-25T02:20:36.350Z,12.05
2022-12-25T02:23:34.072Z,12.15
2022-12-25T02:26:16.926Z,11.38
2022-12-25T02:28:52.342Z,13.75
2022-12-25T02:31:32.832Z,12.15
2022-12-25T02:34:12.796Z,13.15
2022-12-25T02:39:52.207Z,10.57
2022-12-25T02:42:24.301Z,12.32
2022-12-25T02:45:11.599Z,9.55
2022-12-25T02:47:58.037Z,13.52
2022-12-25T02:50:44.950Z,11.68
2022-12-25T02:53:31.533Z,9.90
2022-12-25T02:56:18.415Z,11.63
2022-12-25T02:59:05.338Z,9.82
2022-12-25T03:01:55.423Z,10.35
2022-12-25T03:04:43.912Z,10.32
2022-12-25T03:07:18.618Z,9.05
2022-12-25T03:10:10.983Z,10.55
2022-12-25T03:12:49.866Z,10.52
2022-12-25T03:15:37.763Z,16.10
2022-12-25T03:18:10.047Z,22.25
2022-12-25T03:20:56.615Z,21.80
2022-12-25T03:23:47.831Z,11.18
2022-12-25T03:26:47.671Z,13.20
2022-12-25T03:29:34.973Z,9.23
2022-12-25T03:32:14.458Z,13.32
2022-12-25T03:35:18.904Z,9.07
2022-12-25T03:38:44.180Z,9.88
2022-12-25T03:41:54.059Z,8.25
2022-12-25T03:44:53.939Z,12.18
2022-12-25T03:47:35.214Z,10.15
2022-12-25T03:50:39.761Z,8.40
2022-12-25T03:53:35.880Z,13.70
2022-12-25T03:56:22.627Z,8.05
2022-12-25T03:59:11.048Z,10.05
2022-12-25T04:01:56.779Z,11.40
2022-12-25T04:04:42.966Z,11.00
2022-12-25T04:07:28.841Z,11.25
2022-12-25T04:10:14.776Z,8.85
2022-12-25T04:13:00.536Z,13.77
2022-12-25T04:15:46.514Z,10.13
2022-12-25T04:18:32.137Z,11.30
2022-12-25T04:21:17.673Z,12.50
2022-12-25T04:24:03.576Z,13.32
2022-12-25T04:26:49.091Z,10.45
2022-12-25T04:29:34.887Z,9.50
2022-12-25T04:32:20.544Z,9.50
2022-12-25T04:35:05.978Z,10.02
2022-12-25T04:37:33.217Z,9.07
2022-12-25T04:40:00.438Z,11.25
2022-12-25T04:42:27.658Z,10.25
2022-12-25T04:44:54.844Z,16.20
2022-12-25T04:47:22.057Z,9.57
2022-12-25T04:49:50.274Z,10.00
2022-12-25T04:52:17.557Z,10.95
2022-12-25T04:54:44.781Z,12.98
2022-12-25T04:57:11.995Z,10.95
2022-12-25T04:59:39.251Z,11.20
2022-12-25T05:02:06.496Z,10.10
2022-12-25T05:04:33.884Z,8.90
2022-12-25T05:07:01.120Z,8.48
2022-12-25T05:09:28.367Z,8.82
2022-12-25T05:11:55.541Z,9.48
2022-12-25T05:14:22.746Z,10.90
2022-12-25T05:16:50.168Z,11.45
2022-12-25T05:19:17.440Z,20.10
2022-12-25T05:21:44.701Z,19.35
2022-12-25T05:24:12.031Z,19.95
2022-12-25T05:26:39.256Z,20.65
2022-12-25T05:29:06.791Z,17.67
2022-12-25T05:31:34.189Z,19.55
2022-12-25T05:34:01.586Z,31.10
2022-12-25T05:36:28.854Z,53.55
2022-12-25T05:38:56.054Z,25.52
2022-12-25T05:41:23.256Z,28.23
2022-12-25T05:43:50.543Z,26.27
2022-12-25T05:46:18.044Z,24.83
2022-12-25T05:48:45.505Z,22.10
2022-12-25T05:51:14.412Z,14.50
2022-12-25T05:53:43.226Z,14.55
2022-12-25T05:56:10.899Z,26.52
2022-12-25T05:58:39.696Z,18.33
2022-12-25T06:01:15.657Z,15.40
2022-12-25T06:03:42.973Z,11.55
2022-12-25T06:06:11.289Z,18.08
2022-12-25T06:08:38.535Z,15.57
2022-12-25T06:11:07.685Z,15.73
2022-12-25T06:13:36.123Z,18.33
2022-12-25T06:16:06.644Z,16.02
2022-12-25T06:18:41.980Z,24.90
2022-12-25T06:21:11.800Z,20.13
2022-12-25T06:23:39.807Z,18.50
2022-12-25T06:26:09.793Z,23.35
2022-12-25T06:31:13.632Z,15.18
2022-12-25T06:33:42.037Z,15.38
2022-12-25T06:36:16.043Z,15.30
2022-12-25T06:38:43.572Z,13.68
2022-12-25T06:41:13.149Z,13.60
2022-12-25T06:43:40.636Z,15.85
2022-12-25T06:46:10.233Z,14.77
2022-12-25T06:48:39.488Z,15.43
2022-12-25T06:51:07.198Z,12.88
2022-12-25T06:53:39.765Z,18.05
2022-12-25T06:56:16.040Z,17.20
2022-12-25T06:58:51.540Z,18.42
2022-12-25T07:01:35.256Z,20.73
2022-12-25T07:04:17.073Z,21.02
2022-12-25T07:06:44.371Z,33.03
2022-12-25T07:09:11.727Z,18.38
2022-12-25T07:11:39.032Z,22.50
2022-12-25T07:14:06.273Z,25.65
2022-12-25T07:16:33.715Z,18.83
2022-12-25T07:19:01.420Z,17.95
2022-12-25T07:21:28.689Z,32.40
2022-12-25T07:23:55.967Z,20.77
2022-12-25T07:26:23.261Z,20.52
2022-12-25T07:28:50.453Z,20.23
2022-12-25T07:31:18.379Z,16.45
2022-12-25T07:33:45.789Z,29.95
2022-12-25T07:36:13.980Z,27.67
2022-12-25T07:38:42.479Z,31.05
2022-12-25T07:41:11.676Z,16.55
2022-12-25T07:43:39.159Z,19.45
2022-12-25T07:46:07.126Z,16.42
2022-12-25T07:48:35.530Z,21.13
2022-12-25T07:51:06.977Z,18.77
2022-12-25T07:53:37.032Z,20.17
2022-12-25T07:56:07.238Z,18.98
2022-12-25T07:58:35.161Z,16.27
2022-12-25T08:01:05.530Z,19.60
2022-12-25T08:03:34.775Z,30.55
2022-12-25T08:06:03.904Z,104.70
2022-12-25T08:08:31.458Z,75.40
2022-12-25T08:10:58.779Z,52.35
2022-12-25T08:13:26.110Z,71.03
2022-12-25T08:16:00.991Z,63.67
2022-12-25T08:18:30.380Z,69.35
2022-12-25T08:21:03.716Z,67.43
2022-12-25T08:23:31.127Z,68.53
2022-12-25T08:26:05.402Z,65.00
2022-12-25T08:28:34.435Z,56.58
2022-12-25T08:31:19.757Z,52.00
2022-12-25T08:33:48.792Z,51.15
2022-12-25T08:36:16.899Z,53.92
2022-12-25T08:38:44.378Z,61.45
2022-12-25T08:41:12.589Z,46.75
2022-12-25T08:43:40.040Z,38.90
2022-12-25T08:46:08.165Z,43.58
2022-12-25T08:48:35.707Z,48.13
2022-12-25T08:51:03.657Z,43.15
2022-12-25T08:53:31.009Z,37.38
2022-12-25T08:56:00.635Z,29.77
2022-12-25T08:58:28.574Z,22.70
2022-12-25T09:00:56.530Z,24.65
2022-12-25T09:03:24.876Z,24.75
2022-12-25T09:05:53.146Z,23.98
2022-12-25T09:08:21.853Z,24.33
2022-12-25T09:10:50.015Z,20.98
2022-12-25T09:13:17.894Z,22.88
2022-12-25T09:15:45.267Z,26.65
2022-12-25T09:18:12.644Z,27.88
2022-12-25T09:20:39.952Z,27.88
2022-12-25T09:23:13.254Z,23.02
2022-12-25T09:25:41.155Z,17.75
2022-12-25T09:28:08.428Z,18.02
2022-12-25T09:30:35.697Z,13.55
2022-12-25T09:33:02.898Z,12.77
2022-12-25T09:35:30.207Z,31.33
2022-12-25T09:37:57.441Z,52.35
2022-12-25T09:40:29.237Z,61.22
2022-12-25T09:42:57.183Z,61.50
2022-12-25T09:45:33.315Z,35.05
2022-12-25T09:48:00.731Z,22.85
2022-12-25T09:50:41.254Z,46.80
2022-12-25T09:53:30.400Z,57.80
2022-12-25T09:56:14.716Z,68.45
2022-12-25T09:58:42.250Z,57.83
2022-12-25T10:01:12.490Z,38.00
2022-12-25T10:03:54.980Z,36.38
2022-12-25T10:06:50.319Z,29.73
2022-12-25T10:09:33.289Z,34.10
2022-12-25T10:12:15.785Z,33.13
2022-12-25T10:15:25.212Z,28.33
2022-12-25T10:17:58.541Z,44.85
2022-12-25T10:20:52.477Z,41.78
2022-12-25T10:23:37.179Z,35.83
2022-12-25T10:26:16.641Z,32.22
2022-12-25T10:29:05.577Z,30.58
2022-12-25T10:31:36.215Z,40.63
2022-12-25T10:34:05.151Z,43.20
2022-12-25T10:36:34.369Z,57.22
2022-12-25T10:39:01.642Z,53.80
2022-12-25T10:41:34.273Z,58.03
2022-12-25T10:44:21.658Z,44.83
2022-12-25T10:46:58.418Z,38.85
2022-12-25T10:49:31.516Z,45.38
2022-12-25T10:51:58.990Z,48.08
2022-12-25T10:54:44.587Z,48.30
2022-12-25T10:57:17.317Z,106.88
2022-12-25T11:00:05.666Z,75.13
2022-12-25T11:02:40.782Z,74.47
2022-12-25T11:05:14.208Z,49.78
2022-12-25T11:07:56.071Z,35.42
2022-12-25T11:10:27.318Z,44.50
2022-12-25T11:12:54.807Z,40.47
2022-12-25T11:15:37.261Z,51.88
2022-12-25T11:18:24.919Z,58.50
2022-12-25T11:20:55.067Z,66.95
2022-12-25T11:23:24.277Z,91.97
2022-12-25T11:26:12.820Z,92.10
2022-12-25T11:28:41.707Z,85.80
2022-12-25T11:31:13.055Z,82.20
2022-12-25T11:33:51.865Z,87.45
2022-12-25T11:36:47.016Z,83.30
2022-12-25T11:39:35.244Z,63.33
2022-12-25T11:42:10.222Z,59.78
2022-12-25T11:44:55.779Z,66.32
2022-12-25T11:47:29.213Z,63.22
2022-12-25T11:50:05.528Z,57.97
2022-12-25T11:52:37.377Z,46.08
2022-12-25T11:55:41.504Z,34.38
2022-12-25T11:58:25.253Z,21.60
2022-12-25T12:00:55.299Z,78.57
2022-12-25T12:03:27.507Z,32.10
2022-12-25T12:06:36.434Z,30.35
2022-12-25T12:09:26.927Z,25.73
2022-12-25T12:12:07.356Z,25.92
2022-12-25T12:14:34.652Z,27.08
2022-12-25T12:17:11.932Z,30.38
2022-12-25T12:19:39.455Z,28.70
2022-12-25T12:22:07.225Z,28.20
2022-12-25T12:24:41.872Z,28.40
2022-12-25T12:27:30.739Z,23.95
2022-12-25T12:29:59.692Z,33.55
2022-12-25T12:32:39.356Z,30.45
2022-12-25T12:35:28.378Z,29.42
2022-12-25T12:38:18.950Z,31.67
2022-12-25T12:41:00.318Z,30.20
2022-12-25T12:43:29.219Z,26.77
2022-12-25T12:46:01.486Z,23.87
2022-12-25T12:48:36.934Z,17.90
2022-12-25T12:51:13.023Z,25.60
2022-12-25T12:53:42.730Z,23.02
2022-12-25T12:56:16.715Z,17.48
2022-12-25T12:58:52.545Z,18.23
2022-12-25T13:01:32.832Z,18.52
2022-12-25T13:04:18.720Z,14.85
2022-12-25T13:06:58.861Z,20.90
2022-12-25T13:09:28.833Z,17.25
2022-12-25T13:11:56.653Z,21.95
2022-12-25T13:14:25.205Z,19.33
2022-12-25T13:16:54.591Z,48.45
2022-12-25T13:19:28.873Z,50.72
2022-12-25T13:21:58.928Z,42.17
2022-12-25T13:24:32.103Z,38.30
2022-12-25T13:27:00.425Z,32.03
2022-12-25T13:29:33.207Z,21.90
2022-12-25T13:32:03.210Z,23.40
2022-12-25T13:34:34.396Z,21.27
2022-12-25T13:37:08.881Z,19.30
2022-12-25T13:39:39.455Z,26.73
2022-12-25T13:42:09.543Z,19.70
2022-12-25T13:44:40.085Z,22.15
2022-12-25T13:47:40.749Z,22.52
2022-12-25T13:50:22.174Z,32.20
2022-12-25T13:52:50.150Z,32.33
2022-12-25T13:55:29.131Z,31.95
2022-12-25T13:57:59.347Z,32.50
2022-12-25T14:00:39.130Z,34.17
2022-12-25T14:03:07.815Z,32.70
2022-12-25T14:05:42.733Z,34.80
2022-12-25T14:08:20.871Z,42.80
2022-12-25T14:10:50.609Z,43.78
2022-12-25T14:13:21.380Z,37.65
2022-12-25T14:15:50.122Z,56.17
2022-12-25T14:18:19.283Z,67.90
2022-12-25T14:21:01.498Z,62.38
2022-12-25T14:23:41.311Z,67.68
2022-12-25T14:26:25.350Z,66.97
2022-12-25T14:29:02.086Z,50.63
2022-12-25T14:31:29.819Z,52.65
2022-12-25T14:33:59.727Z,52.05
2022-12-25T14:39:02.813Z,53.75
2022-12-25T14:41:37.954Z,62.50
2022-12-25T14:44:26.773Z,57.45
2022-12-25T14:47:20.454Z,46.63
2022-12-25T14:49:48.295Z,37.55
2022-12-25T14:52:28.265Z,37.83
2022-12-25T14:55:06.107Z,39.90
2022-12-25T14:57:37.915Z,46.38
2022-12-25T15:00:29.140Z,56.63
2022-12-25T15:02:58.635Z,94.22
2022-12-25T15:05:33.592Z,118.72
2022-12-25T15:08:10.309Z,113.97
2022-12-25T15:13:26.712Z,67.47
2022-12-25T15:15:54.373Z,102.32
2022-12-25T15:18:23.880Z,120.78
2022-12-25T15:20:52.637Z,109.05
2022-12-25T15:23:21.136Z,127.50
2022-12-25T15:25:48.806Z,146.05
2022-12-25T15:28:16.122Z,133.63
2022-12-25T15:30:43.533Z,108.85
2022-12-25T15:33:14.775Z,77.88
2022-12-25T15:35:44.466Z,93.25
2022-12-25T15:38:12.910Z,98.03
2022-12-25T15:40:41.703Z,85.40
2022-12-25T15:46:05.102Z,70.63
2022-12-25T15:48:32.385Z,60.08
2022-12-25T15:50:59.734Z,54.38
2022-12-25T15:53:27.080Z,58.83
2022-12-25T15:55:54.445Z,59.88
2022-12-25T15:58:22.348Z,51.85
2022-12-25T16:00:50.649Z,53.75
2022-12-25T16:03:17.967Z,63.22
2022-12-25T16:05:45.269Z,74.88
2022-12-25T16:08:12.506Z,83.82
2022-12-25T16:10:40.476Z,71.75
2022-12-25T16:13:07.791Z,69.75
2022-12-25T16:15:35.117Z,76.97
2022-12-25T16:18:02.701Z,78.45
2022-12-25T16:20:30.435Z,69.55
2022-12-25T16:22:57.682Z,69.20
2022-12-25T16:25:25.044Z,66.40
2022-12-25T16:27:52.262Z,66.10
2022-12-25T16:30:19.513Z,61.50
2022-12-25T16:32:49.921Z,56.15
2022-12-25T16:35:17.966Z,54.70
2022-12-25T16:37:45.253Z,58.72
2022-12-25T16:40:12.648Z,83.72
2022-12-25T16:42:40.384Z,112.90
2022-12-25T16:45:08.023Z,154.80
2022-12-25T16:47:35.381Z,224.35
2022-12-25T16:50:04.970Z,115.60
2022-12-25T16:52:34.179Z,85.15
2022-12-25T16:55:03.111Z,67.53
2022-12-25T16:57:32.266Z,74.15
2022-12-25T17:00:00.089Z,65.20
2022-12-25T17:02:27.517Z,62.28
2022-12-25T17:04:55.017Z,58.25
2022-12-25T17:07:22.227Z,52.70
2022-12-25T17:09:50.181Z,49.47
2022-12-25T17:12:17.827Z,62.17
2022-12-25T17:14:45.558Z,77.95
2022-12-25T17:17:12.813Z,63.08
2022-12-25T17:19:40.023Z,63.00
2022-12-25T17:22:07.557Z,49.72
2022-12-25T17:24:37.447Z,48.47
2022-12-25T17:29:39.040Z,44.08
2022-12-25T17:32:07.980Z,52.83
2022-12-25T17:34:35.467Z,48.97
2022-12-25T17:37:02.837Z,48.67
2022-12-25T17:39:30.265Z,49.60
2022-12-25T17:41:57.731Z,55.85
2022-12-25T17:44:25.012Z,64.05
2022-12-25T17:46:52.491Z,64.70
2022-12-25T17:49:21.796Z,57.22
2022-12-25T17:51:49.146Z,61.15
2022-12-25T17:54:16.465Z,53.45
2022-12-25T17:56:43.931Z,58.72
2022-12-25T17:59:18.029Z,61.55
2022-12-25T18:01:46.853Z,56.58
2022-12-25T18:04:14.463Z,60.35
2022-12-25T18:06:41.911Z,52.00
2022-12-25T18:09:11.247Z,55.85
2022-12-25T18:11:43.069Z,61.55
2022-12-25T18:14:14.738Z,64.13
2022-12-25T18:16:44.988Z,51.33
2022-12-25T18:19:14.401Z,49.40
2022-12-25T18:21:41.647Z,45.42
2022-12-25T18:24:09.446Z,48.58
2022-12-25T18:26:36.799Z,77.25
2022-12-25T18:29:04.385Z,69.10
2022-12-25T18:31:31.738Z,67.03
2022-12-25T18:34:00.283Z,112.35
2022-12-25T18:36:29.531Z,211.32
2022-12-25T18:38:57.789Z,165.88
2022-12-25T18:41:25.540Z,182.82
2022-12-25T18:43:55.702Z,127.63
2022-12-25T18:46:26.704Z,76.35
2022-12-25T18:48:55.916Z,66.28
2022-12-25T18:51:23.839Z,47.78
2022-12-25T18:53:51.424Z,51.92
2022-12-25T18:56:20.640Z,55.33
2022-12-25T18:58:48.131Z,54.95
2022-12-25T19:01:18.719Z,45.42
2022-12-25T19:03:49.439Z,51.97
2022-12-25T19:06:23.313Z,45.92
2022-12-25T19:08:50.754Z,61.53
2022-12-25T19:11:18.892Z,58.30
2022-12-25T19:13:46.461Z,53.03
2022-12-25T19:16:14.152Z,50.33
2022-12-25T19:18:41.971Z,46.03
2022-12-25T19:21:09.806Z,47.67
2022-12-25T19:23:40.707Z,45.47
2022-12-25T19:26:08.855Z,54.60
2022-12-25T19:28:36.996Z,54.40
2022-12-25T19:31:07.543Z,50.20
2022-12-25T19:33:36.729Z,51.15
2022-12-25T19:36:12.937Z,61.17
2022-12-25T19:38:40.652Z,53.45
2022-12-25T19:41:10.430Z,64.53
2022-12-25T19:43:40.368Z,85.97
2022-12-25T19:46:10.530Z,72.03
2022-12-25T19:48:37.827Z,89.00
2022-12-25T19:51:19.132Z,93.20
2022-12-25T19:53:47.313Z,78.93
2022-12-25T19:56:15.477Z,76.95
2022-12-25T19:58:43.300Z,63.90
2022-12-25T20:01:13.386Z,60.92
2022-12-25T20:03:46.209Z,62.83
2022-12-25T20:06:21.958Z,62.55
2022-12-25T20:08:54.706Z,60.35
2022-12-25T20:11:23.712Z,59.70
2022-12-25T20:13:51.105Z,55.13
2022-12-25T20:16:18.527Z,57.85
2022-12-25T20:18:46.130Z,54.83
2022-12-25T20:21:15.307Z,58.30
2022-12-25T20:23:43.988Z,50.20
2022-12-25T20:26:13.236Z,48.53
2022-12-25T20:28:41.918Z,41.20
2022-12-25T20:31:14.868Z,44.80
2022-12-25T20:33:42.263Z,43.38
2022-12-25T20:36:10.396Z,43.47
2022-12-25T20:38:37.576Z,44.10
2022-12-25T20:43:58.056Z,56.95
2022-12-25T20:46:26.116Z,46.35
2022-12-25T20:48:54.489Z,51.55
2022-12-25T20:51:24.028Z,53.35
2022-12-25T20:53:52.005Z,49.70
2022-12-25T20:56:21.325Z,48.65
2022-12-25T20:58:53.355Z,59.40
2022-12-25T21:01:20.976Z,51.05
2022-12-25T21:03:48.474Z,50.75
2022-12-25T21:06:16.968Z,46.03
2022-12-25T21:08:44.383Z,43.75
2022-12-25T21:11:12.104Z,52.75
2022-12-25T21:13:41.272Z,47.80
2022-12-25T21:16:12.194Z,50.78
2022-12-25T21:18:39.804Z,39.30
2022-12-25T21:21:08.202Z,42.47
2022-12-25T21:23:38.243Z,37.30
2022-12-25T21:26:09.664Z,42.50
2022-12-25T21:28:37.224Z,43.00
2022-12-25T21:31:08.509Z,46.38
2022-12-25T21:33:55.123Z,48.28
2022-12-25T21:36:31.293Z,40.80
2022-12-25T21:38:58.547Z,42.70
2022-12-25T21:41:28.152Z,46.67
2022-12-25T21:43:56.170Z,47.03
2022-12-25T21:46:24.123Z,51.05
2022-12-25T21:48:52.057Z,45.95
2022-12-25T21:51:43.824Z,53.85
2022-12-25T21:54:12.277Z,67.18
2022-12-25T21:56:44.805Z,55.03
2022-12-25T21:59:18.433Z,49.20
2022-12-25T22:01:46.820Z,40.25
2022-12-25T22:04:15.958Z,38.42
2022-12-25T22:07:02.833Z,36.08
2022-12-25T22:09:30.266Z,40.85
2022-12-25T22:12:16.656Z,36.53
2022-12-25T22:14:54.754Z,43.03
2022-12-25T22:17:46.601Z,41.25
2022-12-25T22:20:17.335Z,39.92
2022-12-25T22:22:45.038Z,35.95
2022-12-25T22:25:13.700Z,37.00
2022-12-25T22:27:42.961Z,46.10
2022-12-25T22:30:22.161Z,45.00
2022-12-25T22:32:50.519Z,51.97
2022-12-25T22:35:18.614Z,43.80
2022-12-25T22:37:45.947Z,44.92
2022-12-25T22:40:16.856Z,48.65
2022-12-25T22:42:44.343Z,39.20
2022-12-25T22:45:12.458Z,45.08
2022-12-25T22:47:40.172Z,42.92
2022-12-25T22:50:08.763Z,41.80
2022-12-25T22:52:38.963Z,40.13
2022-12-25T22:55:07.831Z,40.97
2022-12-25T22:57:35.623Z,36.50
2022-12-25T23:00:03.653Z,41.08
2022-12-25T23:02:30.997Z,40.38
2022-12-25T23:04:58.335Z,40.72
2022-12-25T23:07:25.584Z,35.92
2022-12-25T23:09:52.798Z,34.67
2022-12-25T23:12:38.680Z,32.35
2022-12-25T23:15:06.686Z,44.17
2022-12-25T23:17:52.609Z,39.83
2022-12-25T23:20:38.463Z,34.67
2022-12-25T23:23:24.152Z,41.75
2022-12-25T23:26:07.582Z,38.65
2022-12-25T23:28:58.637Z,32.53
2022-12-25T23:31:29.990Z,36.58
2022-12-25T23:33:57.632Z,35.65
2022-12-25T23:36:25.094Z,39.58
2022-12-25T23:38:52.381Z,38.17
2022-12-25T23:41:19.704Z,32.42
2022-12-25T23:43:46.934Z,34.78
2022-12-25T23:46:14.208Z,31.83
2022-12-25T23:48:41.533Z,35.88
2022-12-25T23:51:09.067Z,33.90
2022-12-25T23:53:36.655Z,38.58
2022-12-25T23:56:04.658Z,34.47
